»·PEaware :: DAL7150 KLAX-KPSP

DAL7150 :: KLAX-KPSP

FLIGHT INFORMATION

Flight Status: Arrived
Operator:
Delta Air Lines
More flights by this operator :: More flights under this callsign
Pilot: John H. (20300)
Aircraft: AIRBUS A320
(A320)
More flights by this aircraft type
Origin: KLAX Los Angeles Intl
United States
Destination: KPSP Palm Springs Intl
United States
More flights between these airports :: More routes between these airports
Route: +LAXX1 TRM
File this flight plan on PilotEdge
Remarks: please go a little easy on me, im new, 1-2 weeks on network, if im wrong then i always correct in next flight, sorry
Altitude:
(Current/Filed)
10,000ft
Speed:
(Current/Filed)
320kts
Departed: 24-Sep-18 02:54 PM
Arrived: 24-Sep-18 03:32 PM
Distance/Time
Traveled:
95nm/0:38
Distance/Time
To Go:
Arrived

Flight Plot

Page will automatically refresh every two minutes.

Flight plan parsing failed; only flown route is shown


Map Options




Map Legend


Flown Route
Filed Route
Departure Airport
Arrival Airport
Navaid (VOR, NDB)
Fix

Horizontal Profiles

Position Reports

Time Latitude Longitude Heading Altitude Ground
Speed
24-Sep-18 14:45 33.943472 -118.431915 262 140ft 0kts
24-Sep-18 14:46 33.943472 -118.431915 262 140ft 0kts
24-Sep-18 14:47 33.943472 -118.431915 262 140ft 0kts
24-Sep-18 14:48 33.943472 -118.431916 262 140ft 0kts
24-Sep-18 14:49 33.943472 -118.431916 262 140ft 0kts
24-Sep-18 14:50 33.943472 -118.431917 262 140ft 0kts
24-Sep-18 14:51 33.943472 -118.431917 262 140ft 0kts
24-Sep-18 14:52 33.943471 -118.431917 262 140ft 0kts
24-Sep-18 14:53 33.943458 -118.431951 243 140ft 3kts
24-Sep-18 14:54 33.946040 -118.430917 60 140ft 16kts
24-Sep-18 14:55 33.947302 -118.419189 80 140ft 40kts
24-Sep-18 14:56 33.948788 -118.405148 81 140ft 43kts
24-Sep-18 14:57 33.949588 -118.401776 351 140ft 0kts
24-Sep-18 14:58 33.950023 -118.401856 348 140ft 6kts
24-Sep-18 14:59 33.947787 -118.425904 263 698ft 161kts
24-Sep-18 15:00 33.940811 -118.482342 262 3731ft 161kts
24-Sep-18 15:01 33.920270 -118.527000 187 6022ft 185kts
24-Sep-18 15:02 33.869766 -118.515550 175 8330ft 188kts
24-Sep-18 15:03 33.816540 -118.504221 175 10247ft 205kts
24-Sep-18 15:04 33.748460 -118.491420 175 11059ft 293kts
24-Sep-18 15:05 33.652081 -118.476195 175 11053ft 389kts
24-Sep-18 15:06 33.552576 -118.425123 129 11040ft 412kts
24-Sep-18 15:07 33.533916 -118.292486 82 11053ft 417kts
24-Sep-18 15:08 33.548817 -118.154699 81 11048ft 417kts
24-Sep-18 15:09 33.564313 -118.016630 81 11047ft 417kts
24-Sep-18 15:10 33.579799 -117.878978 81 11051ft 417kts
24-Sep-18 15:11 33.595334 -117.741239 81 11047ft 417kts
24-Sep-18 15:12 33.610979 -117.603066 81 11035ft 417kts
24-Sep-18 15:13 33.626635 -117.465359 81 11054ft 417kts
24-Sep-18 15:14 33.647807 -117.329177 66 11067ft 416kts
24-Sep-18 15:15 33.698117 -117.204042 65 11083ft 415kts
24-Sep-18 15:16 33.706764 -117.066801 95 11089ft 417kts
24-Sep-18 15:17 33.695904 -116.937900 95 11082ft 341kts
24-Sep-18 15:18 33.687424 -116.837029 95 11080ft 281kts
24-Sep-18 15:19 33.679474 -116.744017 95 11087ft 280kts
24-Sep-18 15:20 33.671464 -116.650750 95 11085ft 280kts
24-Sep-18 15:21 33.663889 -116.563350 96 10340ft 253kts
24-Sep-18 15:22 33.656550 -116.479671 96 9212ft 251kts
24-Sep-18 15:23 33.649176 -116.395698 96 9179ft 250kts
24-Sep-18 15:24 33.641868 -116.313707 96 7801ft 244kts
24-Sep-18 15:25 33.634632 -116.233127 96 7226ft 242kts
24-Sep-18 15:26 33.657334 -116.168238 1 7217ft 225kts
24-Sep-18 15:27 33.698372 -116.207522 295 6904ft 187kts
24-Sep-18 15:28 33.716321 -116.271057 285 4806ft 209kts
24-Sep-18 15:29 33.732002 -116.333200 296 3956ft 165kts
24-Sep-18 15:30 33.750021 -116.377696 292 3288ft 133kts
24-Sep-18 15:31 33.763698 -116.420720 293 2403ft 138kts
24-Sep-18 15:32 33.779163 -116.462724 307 1294ft 136kts
24-Sep-18 15:33 33.809805 -116.489991 323 780ft 137kts
24-Sep-18 15:34 33.832593 -116.510239 323 491ft 39kts
24-Sep-18 15:35 33.833694 -116.511738 234 491ft 2kts
24-Sep-18 15:36 33.829602 -116.509297 153 491ft 10kts

Navigation Log

Ident Type
Flight plan parsing failed, navigation log unavailable